Bushnell, Illinois
Current Conditions -  °F | °C
As of 4:15 AM on Saturday 20 Dec 2014 (Local Time) from KMQB Reporting Station
Overcast Overcast  
Wind Chill: 25°   Ceiling: 6000
Heat Index: 30°   Visibility: 7mi
Dew Point: 27°   Wind: 5mph
Humidity: 89%   Direction: 150°SSE
Pressure: 30.26"   Gusts: NA
Location:  40.55°N, 90.51°W
Report Text: KMQB 201015Z AUTO 15004KT 7SM OVC060 M01/M03 A3026 RMK AO2 T10101026
Loading
Personal Weather Stations






























Interactive Weather Map New forecast layout! Learn more

10-Day Weather Forecast

Advertisements
Track Severe Weather on mobile